createdAt,value
2018-08-17T00:08:10.662Z,18.4
2018-08-17T00:24:56.401Z,18.4
2018-08-17T00:41:42.376Z,18.7
2018-08-17T00:58:28.333Z,18.4
2018-08-17T01:15:14.139Z,18.4
2018-08-17T01:32:00.024Z,18.4
2018-08-17T01:48:45.817Z,18.4
2018-08-17T02:22:17.040Z,18.1
2018-08-17T02:39:02.093Z,18.1
2018-08-17T02:55:46.929Z,17.8
2018-08-17T03:12:31.627Z,17.4
2018-08-17T03:29:16.273Z,17.4
2018-08-17T03:46:00.917Z,17.4
2018-08-17T04:02:45.584Z,17.4
2018-08-17T04:19:30.233Z,17.8
2018-08-17T04:36:15.089Z,17.8
2018-08-17T04:52:59.935Z,17.8
2018-08-17T05:09:44.871Z,17.8
2018-08-17T05:26:29.858Z,18.1
2018-08-17T05:43:14.997Z,18.1
2018-08-17T06:00:00.277Z,18.1
2018-08-17T06:16:45.444Z,18.1
2018-08-17T06:33:30.411Z,18.1
2018-08-17T06:50:15.343Z,17.8
2018-08-17T07:07:00.532Z,17.4
2018-08-17T07:23:45.371Z,17.4
2018-08-17T07:40:30.532Z,17.4
2018-08-17T07:57:15.673Z,17.4
2018-08-17T08:14:00.495Z,17.1
2018-08-17T08:30:45.406Z,17.4
2018-08-17T08:40:48.605Z,18.1
2018-08-17T08:50:52.076Z,18.7
2018-08-17T08:57:34.746Z,19.4
2018-08-17T09:07:38.871Z,20.0
2018-08-17T09:17:43.312Z,20.6
2018-08-17T09:34:31.037Z,20.6
2018-08-17T09:51:18.934Z,20.6
2018-08-17T10:08:06.626Z,20.6
2018-08-17T10:24:54.170Z,20.3
2018-08-17T10:41:41.339Z,20.6
2018-08-17T10:51:46.158Z,21.3
2018-08-17T11:25:23.188Z,21.0
2018-08-17T11:42:10.844Z,21.0
2018-08-17T11:52:15.879Z,21.6
2018-08-17T12:09:04.694Z,21.9
2018-08-17T12:25:53.395Z,21.3
2018-08-17T12:42:41.255Z,21.0
2018-08-17T12:52:46.235Z,21.6
2018-08-17T13:26:24.424Z,22.6
2018-08-17T13:39:52.198Z,22.6
2018-08-17T13:56:41.636Z,22.6
2018-08-17T14:10:09.657Z,22.2
2018-08-17T14:23:36.152Z,22.2
2018-08-17T14:40:25.130Z,21.9
2018-08-17T14:50:30.415Z,22.6
2018-08-17T14:57:14.212Z,22.9
2018-08-17T15:14:04.044Z,23.5
2018-08-17T15:27:32.065Z,22.9
2018-08-17T15:34:15.769Z,22.2
2018-08-17T15:51:04.705Z,22.2
2018-08-17T16:01:10.244Z,22.9
2018-08-17T16:17:59.701Z,23.2
2018-08-17T16:31:27.650Z,22.6
2018-08-17T16:48:17.092Z,22.6
2018-08-17T17:05:06.367Z,22.6
2018-08-17T17:11:50.256Z,23.2
2018-08-17T17:28:40.561Z,23.2
2018-08-17T17:45:29.866Z,21.9
2018-08-17T18:02:18.545Z,21.6
2018-08-17T18:19:06.879Z,21.3
2018-08-17T18:35:54.757Z,21.0
2018-08-17T19:02:46.406Z,19.7
2018-08-17T19:19:33.187Z,19.4
2018-08-17T19:36:19.254Z,19.0
2018-08-17T19:53:05.191Z,18.4
2018-08-17T20:09:50.720Z,18.1
2018-08-17T20:26:36.356Z,18.1
2018-08-17T20:43:21.144Z,17.8
2018-08-17T21:00:06.231Z,17.8
2018-08-17T21:16:51.172Z,17.4
2018-08-17T21:33:35.985Z,17.4
2018-08-17T21:50:20.677Z,17.1
2018-08-17T22:07:05.192Z,17.1
2018-08-17T22:23:49.701Z,16.8
2018-08-17T22:40:33.944Z,16.8
2018-08-17T22:57:18.201Z,16.8
2018-08-17T23:14:02.295Z,16.8
2018-08-17T23:30:46.421Z,16.5
2018-08-17T23:47:30.653Z,16.5
